createdAt,value
2017-07-01T00:00:07.833Z,0
2017-07-01T00:01:16.929Z,0
2017-07-01T00:02:25.934Z,0
2017-07-01T00:03:34.973Z,0
2017-07-01T00:04:43.960Z,0
2017-07-01T00:05:53.350Z,0
2017-07-01T00:07:02.314Z,0
2017-07-01T00:08:11.359Z,0
2017-07-01T00:09:20.391Z,0
2017-07-01T00:10:29.372Z,0
2017-07-01T00:11:38.327Z,0
2017-07-01T00:12:47.455Z,0
2017-07-01T00:13:56.393Z,0
2017-07-01T00:15:05.455Z,0
2017-07-01T00:16:14.453Z,0
2017-07-01T00:17:23.410Z,0
2017-07-01T00:18:32.779Z,0
2017-07-01T00:19:41.726Z,0
2017-07-01T00:20:50.676Z,0
2017-07-01T00:21:59.672Z,0
2017-07-01T00:23:08.908Z,0
2017-07-01T00:24:17.849Z,0
2017-07-01T00:25:26.866Z,0
2017-07-01T00:26:35.815Z,0
2017-07-01T00:27:44.952Z,0
2017-07-01T00:28:53.897Z,0
2017-07-01T00:30:03.412Z,0
2017-07-01T00:31:12.699Z,0
2017-07-01T00:32:21.778Z,0
2017-07-01T00:33:30.989Z,0
2017-07-01T00:34:40.018Z,0
2017-07-01T00:35:49.169Z,0
2017-07-01T00:36:58.259Z,0
2017-07-01T00:38:07.350Z,0
2017-07-01T00:39:16.421Z,0
2017-07-01T00:40:25.544Z,0
2017-07-01T00:41:34.570Z,0
2017-07-01T00:42:43.613Z,0
2017-07-01T00:43:52.601Z,0
2017-07-01T00:45:01.629Z,0
2017-07-01T00:46:10.572Z,0
2017-07-01T00:47:19.724Z,0
2017-07-01T00:48:29.070Z,0
2017-07-01T00:49:38.125Z,0
2017-07-01T00:50:47.106Z,0
2017-07-01T00:51:56.222Z,0
2017-07-01T00:53:05.326Z,0
2017-07-01T00:54:14.313Z,0
2017-07-01T00:55:23.403Z,0
2017-07-01T00:56:32.468Z,0
2017-07-01T00:57:41.488Z,0
2017-07-01T00:58:50.931Z,0
2017-07-01T00:59:59.937Z,0
2017-07-01T01:01:09.021Z,0
2017-07-01T01:02:18.043Z,0
2017-07-01T01:03:27.018Z,0
2017-07-01T01:04:36.148Z,0
2017-07-01T01:05:45.134Z,0
2017-07-01T01:06:54.165Z,0
2017-07-01T01:08:03.547Z,0
2017-07-01T01:09:12.541Z,0
2017-07-01T01:10:21.617Z,0
2017-07-01T01:11:30.644Z,0
2017-07-01T01:12:39.712Z,0
2017-07-01T01:13:48.663Z,0
2017-07-01T01:14:57.686Z,0
2017-07-01T01:16:06.640Z,0
2017-07-01T01:17:15.781Z,0
2017-07-01T01:18:24.733Z,0
2017-07-01T01:19:33.781Z,0
2017-07-01T01:20:42.765Z,0
2017-07-01T01:21:51.773Z,0
2017-07-01T01:23:00.778Z,0
2017-07-01T01:24:09.823Z,0
2017-07-01T01:25:18.885Z,0
2017-07-01T01:26:27.871Z,0
2017-07-01T01:27:37.067Z,0
2017-07-01T01:28:46.347Z,0
2017-07-01T01:29:55.361Z,0
2017-07-01T01:31:04.313Z,0
2017-07-01T01:32:13.418Z,0
2017-07-01T01:33:22.377Z,0
2017-07-01T01:34:31.459Z,0
2017-07-01T01:35:40.515Z,0
2017-07-01T01:36:49.572Z,0
2017-07-01T01:37:58.593Z,0
2017-07-01T01:39:07.576Z,0
2017-07-01T01:40:16.967Z,0
2017-07-01T01:41:25.957Z,0
2017-07-01T01:42:35.264Z,0
2017-07-01T01:43:44.315Z,0
2017-07-01T01:44:53.333Z,0
2017-07-01T01:46:02.659Z,0
2017-07-01T01:47:11.727Z,0
2017-07-01T01:48:20.672Z,0
2017-07-01T01:49:29.806Z,0
2017-07-01T01:50:38.752Z,0
2017-07-01T01:51:47.787Z,0
2017-07-01T01:52:56.735Z,0
2017-07-01T01:54:06.273Z,0
2017-07-01T01:55:15.560Z,0
2017-07-01T01:56:24.671Z,0
2017-07-01T01:57:33.979Z,0
2017-07-01T01:58:42.930Z,0
2017-07-01T01:59:51.962Z,0
2017-07-01T02:01:00.911Z,0
2017-07-01T02:02:10.181Z,0
2017-07-01T02:03:19.133Z,0
2017-07-01T02:04:28.406Z,0
2017-07-01T02:05:37.346Z,0
2017-07-01T02:06:46.377Z,0
2017-07-01T02:07:55.321Z,0
2017-07-01T02:09:04.269Z,0
2017-07-01T02:10:13.215Z,0
2017-07-01T02:11:22.163Z,0
2017-07-01T02:12:31.111Z,0
2017-07-01T02:13:40.134Z,0
2017-07-01T02:14:49.076Z,0
2017-07-01T02:15:58.023Z,0
2017-07-01T02:17:06.971Z,0
2017-07-01T02:18:15.923Z,0
2017-07-01T02:19:24.862Z,0
2017-07-01T02:20:34.143Z,0
2017-07-01T02:21:43.100Z,0
2017-07-01T02:22:52.044Z,0
2017-07-01T02:24:01.002Z,4
2017-07-01T02:25:10.271Z,4
2017-07-01T02:26:19.220Z,4
2017-07-01T02:27:28.165Z,0
2017-07-01T02:28:37.107Z,0
2017-07-01T02:29:46.055Z,0
2017-07-01T02:30:55.003Z,0
2017-07-01T02:32:03.952Z,4
2017-07-01T02:33:12.902Z,4
2017-07-01T02:34:22.177Z,4
2017-07-01T02:35:31.133Z,4
2017-07-01T02:36:40.078Z,4
2017-07-01T02:37:49.030Z,8
2017-07-01T02:38:57.974Z,4
2017-07-01T02:40:06.937Z,4
2017-07-01T02:41:15.968Z,8
2017-07-01T02:42:24.908Z,4
2017-07-01T02:43:34.190Z,8
2017-07-01T02:44:43.135Z,8
2017-07-01T02:45:52.084Z,8
2017-07-01T02:47:01.032Z,8
2017-07-01T02:48:09.980Z,8
2017-07-01T02:49:18.924Z,12
2017-07-01T02:50:27.867Z,12
2017-07-01T02:51:36.811Z,12
2017-07-01T02:52:45.756Z,12
2017-07-01T02:53:54.711Z,16
2017-07-01T02:55:03.662Z,28
2017-07-01T02:56:12.607Z,28
2017-07-01T02:57:21.549Z,32
2017-07-01T02:58:30.497Z,36
2017-07-01T02:59:39.441Z,32
2017-07-01T03:00:48.472Z,40
2017-07-01T03:01:57.418Z,44
2017-07-01T03:03:06.397Z,52
2017-07-01T03:04:15.349Z,60
2017-07-01T03:05:24.291Z,68
2017-07-01T03:06:33.240Z,68
2017-07-01T03:07:42.194Z,68
2017-07-01T03:08:51.149Z,68
2017-07-01T03:10:00.412Z,72
2017-07-01T03:11:09.357Z,68
2017-07-01T03:12:18.306Z,60
2017-07-01T03:13:27.250Z,56
2017-07-01T03:14:36.203Z,44
2017-07-01T03:15:45.157Z,36
2017-07-01T03:16:54.422Z,32
2017-07-01T03:18:03.368Z,36
2017-07-01T03:19:12.314Z,40
2017-07-01T03:20:21.250Z,48
2017-07-01T03:21:30.280Z,56
2017-07-01T03:22:39.263Z,64
2017-07-01T03:23:48.210Z,64
2017-07-01T03:24:57.163Z,68
2017-07-01T03:26:06.116Z,60
2017-07-01T03:27:15.061Z,60
2017-07-01T03:28:24.005Z,60
2017-07-01T03:29:32.954Z,60
2017-07-01T03:30:41.903Z,64
2017-07-01T03:31:50.849Z,64
2017-07-01T03:32:59.809Z,68
2017-07-01T03:34:08.756Z,76
2017-07-01T03:35:17.701Z,76
2017-07-01T03:36:26.656Z,84
2017-07-01T03:37:35.601Z,100
2017-07-01T03:38:44.552Z,116
2017-07-01T03:39:53.501Z,128
2017-07-01T03:41:02.452Z,132
2017-07-01T03:42:11.400Z,152
2017-07-01T03:43:20.345Z,164
2017-07-01T03:44:29.633Z,148
2017-07-01T03:45:38.592Z,128
2017-07-01T03:46:47.541Z,124
2017-07-01T03:47:56.521Z,120
2017-07-01T03:49:05.460Z,132
2017-07-01T03:50:14.401Z,136
2017-07-01T03:51:23.347Z,144
2017-07-01T03:52:32.293Z,156
2017-07-01T03:53:47.509Z,184
2017-07-01T03:54:56.477Z,196
2017-07-01T03:56:05.427Z,200
2017-07-01T03:57:14.374Z,204
2017-07-01T03:58:23.319Z,208
2017-07-01T03:59:32.261Z,216
2017-07-01T04:00:41.206Z,204
2017-07-01T04:01:50.236Z,204
2017-07-01T04:02:59.918Z,216
2017-07-01T04:04:08.863Z,232
2017-07-01T04:05:18.111Z,244
2017-07-01T04:06:27.393Z,240
2017-07-01T04:07:36.346Z,216
2017-07-01T04:08:45.286Z,208
2017-07-01T04:09:54.232Z,216
2017-07-01T04:11:03.182Z,224
2017-07-01T04:12:12.128Z,216
2017-07-01T04:13:21.077Z,208
2017-07-01T04:14:30.021Z,236
2017-07-01T04:15:38.973Z,300
2017-07-01T04:16:47.919Z,340
2017-07-01T04:17:56.855Z,388
2017-07-01T04:19:05.811Z,396
2017-07-01T04:20:14.757Z,420
2017-07-01T04:21:23.705Z,460
2017-07-01T04:22:32.649Z,448
2017-07-01T04:23:41.598Z,404
2017-07-01T04:24:50.546Z,356
2017-07-01T04:25:59.500Z,260
2017-07-01T04:27:08.446Z,208
2017-07-01T04:28:17.389Z,224
2017-07-01T04:29:26.335Z,228
2017-07-01T04:30:35.284Z,224
2017-07-01T04:31:44.553Z,216
2017-07-01T04:32:53.501Z,232
2017-07-01T04:34:02.546Z,244
2017-07-01T04:35:11.584Z,256
2017-07-01T04:36:20.526Z,272
2017-07-01T04:37:29.481Z,304
2017-07-01T04:38:38.512Z,336
2017-07-01T04:39:47.778Z,300
2017-07-01T04:40:56.729Z,244
2017-07-01T04:42:06.005Z,216
2017-07-01T04:43:14.944Z,220
2017-07-01T04:44:23.888Z,208
2017-07-01T04:45:32.837Z,180
2017-07-01T04:46:41.783Z,152
2017-07-01T04:47:50.727Z,144
2017-07-01T04:48:59.678Z,128
2017-07-01T04:50:08.624Z,136
2017-07-01T04:51:17.571Z,132
2017-07-01T04:52:26.522Z,128
2017-07-01T04:53:35.476Z,124
2017-07-01T04:54:44.430Z,116
2017-07-01T04:55:53.374Z,124
2017-07-01T04:57:02.324Z,120
2017-07-01T04:58:11.270Z,120
2017-07-01T04:59:20.303Z,124
2017-07-01T05:00:29.254Z,196
2017-07-01T05:01:38.208Z,316
2017-07-01T05:02:47.153Z,272
2017-07-01T05:03:56.178Z,272
2017-07-01T05:05:05.128Z,268
2017-07-01T05:06:14.068Z,240
2017-07-01T05:07:23.008Z,268
2017-07-01T05:08:31.972Z,348
2017-07-01T05:09:40.918Z,324
2017-07-01T05:10:50.190Z,308
2017-07-01T05:11:59.134Z,316
2017-07-01T05:13:08.091Z,292
2017-07-01T05:14:17.360Z,268
2017-07-01T05:15:26.357Z,212
2017-07-01T05:16:35.386Z,176
2017-07-01T05:17:44.333Z,184
2017-07-01T05:18:53.264Z,180
2017-07-01T05:20:02.217Z,200
2017-07-01T05:21:11.170Z,220
2017-07-01T05:22:20.127Z,212
2017-07-01T05:23:29.075Z,248
2017-07-01T05:24:38.023Z,292
2017-07-01T05:25:46.962Z,296
2017-07-01T05:26:55.945Z,292
2017-07-01T05:28:04.892Z,280
2017-07-01T05:29:13.837Z,236
2017-07-01T05:30:22.779Z,248
2017-07-01T05:31:31.727Z,360
2017-07-01T05:32:40.673Z,456
2017-07-01T05:33:49.612Z,444
2017-07-01T05:34:58.550Z,492
2017-07-01T05:36:07.585Z,496
2017-07-01T05:37:16.533Z,440
2017-07-01T05:38:25.479Z,388
2017-07-01T05:39:34.421Z,384
2017-07-01T05:40:43.366Z,332
2017-07-01T05:41:52.330Z,276
2017-07-01T05:43:01.288Z,256
2017-07-01T05:44:10.238Z,212
2017-07-01T05:45:19.183Z,232
2017-07-01T05:46:28.134Z,320
2017-07-01T05:47:37.498Z,356
2017-07-01T05:48:46.448Z,352
2017-07-01T05:49:55.394Z,344
2017-07-01T05:51:04.344Z,316
2017-07-01T05:52:13.290Z,348
2017-07-01T05:53:22.235Z,356
2017-07-01T05:54:31.188Z,460
2017-07-01T05:55:40.126Z,552
2017-07-01T05:56:49.070Z,548
2017-07-01T05:57:58.016Z,556
2017-07-01T05:59:06.962Z,448
2017-07-01T06:00:15.902Z,340
2017-07-01T06:01:24.851Z,304
2017-07-01T06:02:33.799Z,276
2017-07-01T06:03:42.741Z,328
2017-07-01T06:04:51.689Z,360
2017-07-01T06:06:00.632Z,308
2017-07-01T06:07:09.588Z,304
2017-07-01T06:08:19.348Z,364
2017-07-01T06:09:28.523Z,532
2017-07-01T06:10:37.473Z,532
2017-07-01T06:11:46.575Z,524
2017-07-01T06:12:55.884Z,492
2017-07-01T06:14:04.837Z,540
2017-07-01T06:15:13.782Z,560
2017-07-01T06:16:22.727Z,796
2017-07-01T06:17:31.796Z,980
2017-07-01T06:18:40.740Z,1008
2017-07-01T06:19:49.692Z,1024
2017-07-01T06:20:58.770Z,1048
2017-07-01T06:22:07.738Z,1080
2017-07-01T06:23:16.770Z,1176
2017-07-01T06:24:25.720Z,1148
2017-07-01T06:25:34.666Z,1128
2017-07-01T06:26:43.617Z,1108
2017-07-01T06:27:52.568Z,1204
2017-07-01T06:29:01.510Z,1272
2017-07-01T06:30:10.797Z,1304
2017-07-01T06:31:19.785Z,1404
2017-07-01T06:32:28.735Z,1372
2017-07-01T06:33:37.687Z,1548
2017-07-01T06:34:46.637Z,1732
2017-07-01T06:35:55.611Z,1848
2017-07-01T06:37:04.630Z,1784
2017-07-01T06:38:13.574Z,1468
2017-07-01T06:39:22.620Z,1332
2017-07-01T06:40:31.562Z,1256
2017-07-01T06:41:40.582Z,1152
2017-07-01T06:42:49.863Z,1272
2017-07-01T06:43:58.828Z,1340
2017-07-01T06:45:07.959Z,1336
2017-07-01T06:46:16.908Z,1560
2017-07-01T06:47:25.855Z,1492
2017-07-01T06:48:34.792Z,1272
2017-07-01T06:49:43.741Z,888
2017-07-01T06:50:52.721Z,964
2017-07-01T06:52:01.669Z,1448
2017-07-01T06:53:10.829Z,1320
2017-07-01T06:54:19.777Z,916
2017-07-01T06:55:28.724Z,640
2017-07-01T06:56:37.995Z,608
2017-07-01T06:57:47.029Z,536
2017-07-01T06:58:56.005Z,584
2017-07-01T07:00:05.268Z,1060
2017-07-01T07:01:14.219Z,1204
2017-07-01T07:02:23.165Z,1488
2017-07-01T07:03:32.107Z,1676
2017-07-01T07:04:41.057Z,1788
2017-07-01T07:05:49.999Z,1468
2017-07-01T07:06:58.957Z,1020
2017-07-01T07:08:07.902Z,836
2017-07-01T07:09:16.851Z,708
2017-07-01T07:10:25.800Z,660
2017-07-01T07:11:34.759Z,684
2017-07-01T07:12:43.709Z,796
2017-07-01T07:13:52.657Z,828
2017-07-01T07:15:01.602Z,940
2017-07-01T07:16:10.548Z,912
2017-07-01T07:17:19.507Z,900
2017-07-01T07:18:28.457Z,1004
2017-07-01T07:19:37.403Z,1124
2017-07-01T07:20:46.352Z,1144
2017-07-01T07:21:55.306Z,1096
2017-07-01T07:23:04.257Z,1180
2017-07-01T07:24:13.206Z,1408
2017-07-01T07:25:22.158Z,1820
2017-07-01T07:26:31.120Z,2060
2017-07-01T07:27:40.081Z,1716
2017-07-01T07:28:49.027Z,1908
2017-07-01T07:29:57.963Z,2672
2017-07-01T07:31:06.910Z,3204
2017-07-01T07:32:15.858Z,2900
2017-07-01T07:33:24.810Z,3056
2017-07-01T07:34:33.763Z,3176
2017-07-01T07:35:42.707Z,3100
2017-07-01T07:36:51.655Z,3048
2017-07-01T07:38:00.605Z,3196
2017-07-01T07:39:10.836Z,3460
2017-07-01T07:40:19.787Z,3868
2017-07-01T07:41:28.828Z,3712
2017-07-01T07:42:37.781Z,3588
2017-07-01T07:43:46.813Z,3620
2017-07-01T07:44:55.758Z,3536
2017-07-01T07:46:04.721Z,3324
2017-07-01T07:47:13.672Z,3128
2017-07-01T07:48:22.618Z,3352
2017-07-01T07:49:31.649Z,3660
2017-07-01T07:50:40.607Z,3908
2017-07-01T07:51:49.554Z,4296
2017-07-01T07:52:58.594Z,4516
2017-07-01T07:54:07.537Z,4564
2017-07-01T07:55:16.482Z,4748
2017-07-01T07:56:25.438Z,4580
2017-07-01T07:57:34.386Z,3900
2017-07-01T07:58:43.423Z,3784
2017-07-01T07:59:52.374Z,3732
2017-07-01T08:01:01.321Z,3764
2017-07-01T08:02:10.273Z,3744
2017-07-01T08:03:19.227Z,3756
2017-07-01T08:04:28.181Z,4124
2017-07-01T08:05:37.447Z,3940
2017-07-01T08:06:46.396Z,3956
2017-07-01T08:07:55.430Z,3352
2017-07-01T08:09:04.385Z,3584
2017-07-01T08:10:13.339Z,3824
2017-07-01T08:11:22.288Z,3800
2017-07-01T08:12:31.243Z,3540
2017-07-01T08:13:40.201Z,3420
2017-07-01T08:14:49.149Z,3136
2017-07-01T08:15:58.181Z,3056
2017-07-01T08:17:07.130Z,2432
2017-07-01T08:18:16.079Z,2052
2017-07-01T08:19:25.028Z,3136
2017-07-01T08:20:33.982Z,2476
2017-07-01T08:21:42.933Z,2408
2017-07-01T08:22:51.880Z,3096
2017-07-01T08:24:00.829Z,3608
2017-07-01T08:25:09.771Z,3260
2017-07-01T08:26:18.719Z,3528
2017-07-01T08:27:27.664Z,2776
2017-07-01T08:28:36.612Z,3560
2017-07-01T08:29:45.558Z,2952
2017-07-01T08:30:54.505Z,2664
2017-07-01T08:32:03.461Z,3908
2017-07-01T08:33:12.826Z,4604
2017-07-01T08:34:21.780Z,3560
2017-07-01T08:35:30.731Z,2664
2017-07-01T08:36:39.673Z,3468
2017-07-01T08:37:48.621Z,2080
2017-07-01T08:38:57.570Z,2736
2017-07-01T08:40:06.615Z,5156
2017-07-01T08:41:15.564Z,2532
2017-07-01T08:42:24.510Z,4076
2017-07-01T08:43:33.458Z,4952
2017-07-01T08:44:42.410Z,2740
2017-07-01T08:45:51.360Z,4696
2017-07-01T08:47:00.304Z,2332
2017-07-01T08:48:09.256Z,1768
2017-07-01T08:49:18.203Z,4484
2017-07-01T08:50:27.152Z,6244
2017-07-01T08:51:36.100Z,2892
2017-07-01T08:52:45.054Z,2228
2017-07-01T08:53:53.997Z,3936
2017-07-01T08:55:02.949Z,3740
2017-07-01T08:56:11.979Z,7260
2017-07-01T08:57:20.930Z,5520
2017-07-01T08:58:30.250Z,4412
2017-07-01T08:59:39.213Z,2624
2017-07-01T09:00:48.163Z,1244
2017-07-01T09:01:57.430Z,840
2017-07-01T09:03:06.695Z,576
2017-07-01T09:04:15.652Z,676
2017-07-01T09:05:24.600Z,860
2017-07-01T09:06:33.549Z,524
2017-07-01T09:07:42.498Z,672
2017-07-01T09:08:51.450Z,1084
2017-07-01T09:10:00.391Z,860
2017-07-01T09:11:09.345Z,592
2017-07-01T09:12:18.622Z,404
2017-07-01T09:13:27.565Z,680
2017-07-01T09:14:36.508Z,1360
2017-07-01T09:15:45.457Z,1200
2017-07-01T09:16:54.404Z,2376
2017-07-01T09:18:03.346Z,1932
2017-07-01T09:19:12.293Z,1080
2017-07-01T09:20:21.253Z,980
2017-07-01T09:21:30.208Z,1612
2017-07-01T09:22:39.476Z,1436
2017-07-01T09:23:48.425Z,1132
2017-07-01T09:24:57.372Z,1136
2017-07-01T09:26:06.323Z,1012
2017-07-01T09:27:15.355Z,1116
2017-07-01T09:28:24.304Z,904
2017-07-01T09:29:33.260Z,1024
2017-07-01T09:30:42.298Z,852
2017-07-01T09:31:51.332Z,740
2017-07-01T09:33:00.288Z,676
2017-07-01T09:34:09.234Z,528
2017-07-01T09:35:18.178Z,724
2017-07-01T09:36:27.124Z,676
2017-07-01T09:37:36.064Z,1096
2017-07-01T09:38:45.016Z,1144
2017-07-01T09:39:54.048Z,1284
2017-07-01T09:41:03.032Z,1232
2017-07-01T09:42:11.989Z,1232
2017-07-01T09:43:20.929Z,1408
2017-07-01T09:44:30.201Z,1344
2017-07-01T09:45:39.150Z,996
2017-07-01T09:46:48.195Z,540
2017-07-01T09:47:57.137Z,1248
2017-07-01T09:49:06.087Z,1816
2017-07-01T09:50:15.040Z,1464
2017-07-01T09:51:23.993Z,1668
2017-07-01T09:52:33.027Z,1832
2017-07-01T09:53:41.967Z,1780
2017-07-01T09:54:50.918Z,1284
2017-07-01T09:55:59.862Z,892
2017-07-01T09:57:08.816Z,904
2017-07-01T09:58:17.765Z,1064
2017-07-01T09:59:26.723Z,2220
2017-07-01T10:00:35.672Z,3284
2017-07-01T10:01:44.623Z,4160
2017-07-01T10:02:53.578Z,4444
2017-07-01T10:04:02.528Z,4532
2017-07-01T10:05:11.482Z,4260
2017-07-01T10:06:20.422Z,4392
2017-07-01T10:07:29.373Z,4492
2017-07-01T10:08:38.326Z,4560
2017-07-01T10:09:47.275Z,4404
2017-07-01T10:10:56.228Z,3968
2017-07-01T10:12:05.182Z,3412
2017-07-01T10:13:14.130Z,2972
2017-07-01T10:14:23.090Z,2224
2017-07-01T10:15:32.042Z,1568
2017-07-01T10:16:41.079Z,1620
2017-07-01T10:17:50.029Z,1788
2017-07-01T10:18:58.977Z,1252
2017-07-01T10:20:07.925Z,748
2017-07-01T10:21:16.881Z,704
2017-07-01T10:22:25.927Z,480
2017-07-01T10:23:34.869Z,392
2017-07-01T10:24:43.862Z,308
2017-07-01T10:25:52.810Z,180
2017-07-01T10:27:01.809Z,204
2017-07-01T10:28:10.758Z,244
2017-07-01T10:29:19.705Z,420
2017-07-01T10:30:28.652Z,776
2017-07-01T10:31:37.604Z,1260
2017-07-01T10:32:46.559Z,1400
2017-07-01T10:33:55.507Z,1584
2017-07-01T10:35:04.453Z,2160
2017-07-01T10:36:13.489Z,2552
2017-07-01T10:37:22.439Z,3144
2017-07-01T10:38:31.394Z,3048
2017-07-01T10:39:40.339Z,3036
2017-07-01T10:40:49.287Z,2932
2017-07-01T10:41:58.229Z,3092
2017-07-01T10:43:07.262Z,2304
2017-07-01T10:44:16.258Z,2312
2017-07-01T10:45:25.206Z,1384
2017-07-01T10:46:34.154Z,1332
2017-07-01T10:47:43.102Z,844
2017-07-01T10:48:52.051Z,620
2017-07-01T10:50:00.996Z,708
2017-07-01T10:51:09.944Z,820
2017-07-01T10:52:18.888Z,972
2017-07-01T10:53:27.876Z,840
2017-07-01T10:54:36.829Z,552
2017-07-01T10:55:45.770Z,824
2017-07-01T10:56:54.714Z,860
2017-07-01T10:58:03.668Z,880
2017-07-01T10:59:12.608Z,1768
2017-07-01T11:00:21.556Z,1940
2017-07-01T11:01:30.504Z,2028
2017-07-01T11:02:39.452Z,2076
2017-07-01T11:03:48.406Z,2228
2017-07-01T11:04:57.353Z,2748
2017-07-01T11:06:06.391Z,3120
2017-07-01T11:07:15.340Z,3208
2017-07-01T11:08:24.291Z,2952
2017-07-01T11:09:33.242Z,2892
2017-07-01T11:10:42.187Z,3032
2017-07-01T11:11:51.136Z,3284
2017-07-01T11:13:00.088Z,2912
2017-07-01T11:14:09.036Z,2936
2017-07-01T11:15:17.983Z,2508
2017-07-01T11:16:26.934Z,3080
2017-07-01T11:17:35.881Z,2828
2017-07-01T11:18:44.833Z,2724
2017-07-01T11:19:53.778Z,2288
2017-07-01T11:21:02.727Z,2424
2017-07-01T11:22:11.673Z,2904
2017-07-01T11:23:20.944Z,2840
2017-07-01T11:24:29.895Z,1812
2017-07-01T11:25:38.836Z,2056
2017-07-01T11:26:47.784Z,2908
2017-07-01T11:27:56.775Z,2944
2017-07-01T11:29:05.724Z,3352
2017-07-01T11:30:14.670Z,2724
2017-07-01T11:31:23.709Z,2740
2017-07-01T11:32:32.656Z,2636
2017-07-01T11:33:41.935Z,2760
2017-07-01T11:34:50.887Z,2568
2017-07-01T11:35:59.837Z,2804
2017-07-01T11:37:08.781Z,2716
2017-07-01T11:38:17.813Z,2564
2017-07-01T11:39:26.761Z,2520
2017-07-01T11:40:35.711Z,2772
2017-07-01T11:41:44.662Z,3296
2017-07-01T11:42:53.703Z,3176
2017-07-01T11:44:02.658Z,2940
2017-07-01T11:45:11.722Z,2868
2017-07-01T11:46:20.764Z,3060
2017-07-01T11:47:29.714Z,2932
2017-07-01T11:48:38.666Z,2724
2017-07-01T11:49:47.617Z,2548
2017-07-01T11:50:56.557Z,2840
2017-07-01T11:52:05.621Z,3232
2017-07-01T11:53:14.907Z,2392
2017-07-01T11:54:23.898Z,2648
2017-07-01T11:55:32.845Z,2804
2017-07-01T11:56:41.791Z,1820
2017-07-01T11:57:50.740Z,1832
2017-07-01T11:58:59.772Z,1912
2017-07-01T12:00:08.728Z,1548
2017-07-01T12:01:17.692Z,1996
2017-07-01T12:02:26.640Z,2680
2017-07-01T12:03:35.588Z,1036
2017-07-01T12:04:44.537Z,856
2017-07-01T12:05:53.498Z,804
2017-07-01T12:07:02.540Z,512
2017-07-01T12:08:11.485Z,820
2017-07-01T12:09:20.436Z,868
2017-07-01T12:10:29.473Z,1216
2017-07-01T12:11:38.424Z,1268
2017-07-01T12:12:47.422Z,1140
2017-07-01T12:13:56.370Z,1524
2017-07-01T12:15:05.317Z,1364
2017-07-01T12:16:14.269Z,1464
2017-07-01T12:17:23.229Z,624
2017-07-01T12:18:32.190Z,444
2017-07-01T12:19:41.457Z,1228
2017-07-01T12:20:50.523Z,1092
2017-07-01T12:21:59.471Z,1552
2017-07-01T12:23:08.414Z,1212
2017-07-01T12:24:17.363Z,1068
2017-07-01T12:25:26.305Z,948
2017-07-01T12:26:35.251Z,1036
2017-07-01T12:27:44.526Z,1172
2017-07-01T12:28:53.476Z,1716
2017-07-01T12:30:02.443Z,1872
2017-07-01T12:31:11.381Z,1832
2017-07-01T12:32:20.324Z,1664
2017-07-01T12:33:29.280Z,1544
2017-07-01T12:34:38.226Z,1228
2017-07-01T12:35:47.180Z,1208
2017-07-01T12:36:56.129Z,1220
2017-07-01T12:38:05.165Z,1340
2017-07-01T12:39:14.191Z,1444
2017-07-01T12:40:23.141Z,1628
2017-07-01T12:41:32.092Z,1936
2017-07-01T12:42:41.042Z,2424
2017-07-01T12:43:49.990Z,2736
2017-07-01T12:44:59.027Z,3320
2017-07-01T12:46:07.975Z,3544
2017-07-01T12:47:16.922Z,2948
2017-07-01T12:48:25.873Z,2240
2017-07-01T12:49:34.821Z,3080
2017-07-01T12:50:43.766Z,2368
2017-07-01T12:51:52.718Z,2120
2017-07-01T12:53:01.745Z,2060
2017-07-01T12:54:10.694Z,2252
2017-07-01T12:55:19.646Z,1984
2017-07-01T12:56:28.593Z,1840
2017-07-01T12:57:37.536Z,1800
2017-07-01T12:58:46.485Z,2124
2017-07-01T12:59:55.428Z,2348
2017-07-01T13:01:04.377Z,2224
2017-07-01T13:02:13.318Z,2048
2017-07-01T13:03:22.260Z,2324
2017-07-01T13:04:31.210Z,2464
2017-07-01T13:05:40.254Z,2844
2017-07-01T13:06:49.198Z,2284
2017-07-01T13:07:58.146Z,1912
2017-07-01T13:09:07.100Z,1916
2017-07-01T13:10:16.049Z,2116
2017-07-01T13:11:24.999Z,2172
2017-07-01T13:12:33.951Z,2420
2017-07-01T13:13:42.895Z,2460
2017-07-01T13:14:52.174Z,2256
2017-07-01T13:16:01.122Z,1660
2017-07-01T13:17:10.071Z,2076
2017-07-01T13:18:19.022Z,2772
2017-07-01T13:19:27.976Z,2140
2017-07-01T13:20:36.919Z,2240
2017-07-01T13:21:45.871Z,2460
2017-07-01T13:22:54.821Z,1952
2017-07-01T13:24:03.769Z,2644
2017-07-01T13:25:12.807Z,2484
2017-07-01T13:26:21.803Z,2188
2017-07-01T13:27:30.839Z,2640
2017-07-01T13:28:39.798Z,1740
2017-07-01T13:29:48.747Z,2540
2017-07-01T13:30:57.778Z,2520
2017-07-01T13:32:06.815Z,2100
2017-07-01T13:33:15.761Z,1964
2017-07-01T13:34:24.712Z,1864
2017-07-01T13:35:33.659Z,1628
2017-07-01T13:36:42.611Z,2048
2017-07-01T13:37:51.565Z,2152
2017-07-01T13:39:00.510Z,2492
2017-07-01T13:40:09.548Z,2232
2017-07-01T13:41:18.516Z,2072
2017-07-01T13:42:27.466Z,1632
2017-07-01T13:43:36.412Z,2112
2017-07-01T13:44:45.359Z,1676
2017-07-01T13:45:54.310Z,1360
2017-07-01T13:47:03.252Z,1936
2017-07-01T13:48:12.197Z,2076
2017-07-01T13:49:21.142Z,2036
2017-07-01T13:50:30.429Z,1972
2017-07-01T13:51:39.385Z,1444
2017-07-01T13:52:48.340Z,1516
2017-07-01T13:53:57.291Z,800
2017-07-01T13:55:06.235Z,608
2017-07-01T13:56:15.207Z,640
2017-07-01T13:57:24.156Z,408
2017-07-01T13:58:33.102Z,364
2017-07-01T13:59:42.053Z,248
2017-07-01T14:00:51.012Z,524
2017-07-01T14:02:00.059Z,1756
2017-07-01T14:03:09.000Z,508
2017-07-01T14:04:17.952Z,480
2017-07-01T14:05:26.903Z,464
2017-07-01T14:06:35.849Z,484
2017-07-01T14:07:44.794Z,620
2017-07-01T14:08:53.741Z,1040
2017-07-01T14:10:02.705Z,1624
2017-07-01T14:11:11.655Z,1996
2017-07-01T14:12:20.606Z,1856
2017-07-01T14:13:29.640Z,1784
2017-07-01T14:14:38.902Z,1880
2017-07-01T14:15:47.849Z,1920
2017-07-01T14:16:56.804Z,1904
2017-07-01T14:18:06.070Z,1928
2017-07-01T14:19:15.028Z,2020
2017-07-01T14:20:24.148Z,2168
2017-07-01T14:21:33.187Z,2384
2017-07-01T14:22:42.131Z,2480
2017-07-01T14:23:51.088Z,2560
2017-07-01T14:25:00.039Z,2436
2017-07-01T14:26:09.309Z,2552
2017-07-01T14:27:18.260Z,2692
2017-07-01T14:28:27.294Z,2340
2017-07-01T14:29:36.248Z,1984
2017-07-01T14:30:45.198Z,1296
2017-07-01T14:31:54.146Z,1180
2017-07-01T14:33:03.106Z,1136
2017-07-01T14:34:12.069Z,784
2017-07-01T14:35:21.012Z,1008
2017-07-01T14:36:29.965Z,988
2017-07-01T14:37:38.925Z,1180
2017-07-01T14:38:47.877Z,800
2017-07-01T14:39:56.828Z,1148
2017-07-01T14:41:05.772Z,788
2017-07-01T14:42:14.715Z,736
2017-07-01T14:43:23.660Z,848
2017-07-01T14:44:32.608Z,808
2017-07-01T14:45:41.569Z,340
2017-07-01T14:46:50.921Z,420
2017-07-01T14:48:00.189Z,608
2017-07-01T14:49:09.140Z,940
2017-07-01T14:50:18.090Z,784
2017-07-01T14:51:27.120Z,940
2017-07-01T14:52:36.157Z,464
2017-07-01T14:53:45.150Z,272
2017-07-01T14:54:54.090Z,344
2017-07-01T14:56:03.043Z,452
2017-07-01T14:57:12.080Z,384
2017-07-01T14:58:21.035Z,584
2017-07-01T14:59:29.985Z,836
2017-07-01T15:00:38.932Z,812
2017-07-01T15:01:47.882Z,828
2017-07-01T15:02:56.835Z,856
2017-07-01T15:04:05.781Z,920
2017-07-01T15:05:15.065Z,984
2017-07-01T15:06:24.011Z,1148
2017-07-01T15:07:32.958Z,1288
2017-07-01T15:08:41.911Z,1408
2017-07-01T15:09:50.881Z,1420
2017-07-01T15:10:59.830Z,1608
2017-07-01T15:12:08.781Z,1772
2017-07-01T15:13:17.728Z,1856
2017-07-01T15:14:26.770Z,1944
2017-07-01T15:15:35.720Z,1900
2017-07-01T15:16:44.669Z,1892
2017-07-01T15:17:53.619Z,1884
2017-07-01T15:19:02.569Z,1772
2017-07-01T15:20:11.515Z,1712
2017-07-01T15:21:20.460Z,1660
2017-07-01T15:22:29.406Z,1588
2017-07-01T15:23:38.364Z,1504
2017-07-01T15:24:47.317Z,1556
2017-07-01T15:25:56.267Z,1624
2017-07-01T15:27:05.208Z,1864
2017-07-01T15:28:14.148Z,1648
2017-07-01T15:29:23.101Z,1612
2017-07-01T15:30:32.052Z,1560
2017-07-01T15:31:41.014Z,1568
2017-07-01T15:32:49.966Z,1348
2017-07-01T15:33:58.919Z,1028
2017-07-01T15:35:07.868Z,1180
2017-07-01T15:36:16.820Z,984
2017-07-01T15:37:25.768Z,952
2017-07-01T15:38:34.710Z,900
2017-07-01T15:39:43.740Z,1056
2017-07-01T15:40:52.690Z,656
2017-07-01T15:42:01.721Z,584
2017-07-01T15:43:10.675Z,792
2017-07-01T15:44:19.630Z,880
2017-07-01T15:45:28.574Z,776
2017-07-01T15:46:37.519Z,948
2017-07-01T15:47:46.472Z,752